Terminal Aerodrome Forecast
Issued by NWS Lubbock, TX

Home | Current Version | Previous Version | Text Only | Print | Product List | Glossary On
Versions: 1 2 3 4 5 6 7 8 9 10 11 12
659
FTUS44 KLUB 211120
TAFLBB
TAF
KLBB 211120Z 2112/2212 33011KT P6SM FEW250
     FM211700 02020KT P6SM FEW250
     FM220200 04010KT P6SM SKC=

USA.gov is the U.S. government's official web portal to all federal, state and local government web resources and services.